Time;durP1;ratioP1;P1;durP2;ratioP2;P2;SDS_P1;SDS_P2;PMS_P1;PMS_P2;Temp;Humidity;BMP_temperature;BMP_pressure;BME280_temperature;BME280_humidity;BME280_pressure;Samples;Min_cycle;Max_cycle;Signal;HPM_P1;HPM_P2
2021/01/17 00:00:45;;;;;;;13.90;6.70;;;15.30;61.40;;;;;;4954766;28;20535;-71
2021/01/17 00:03:11;;;;;;;13.75;6.55;;;15.30;59.80;;;;;;4959398;28;20480;-69
2021/01/17 00:05:37;;;;;;;11.23;5.40;;;15.20;60.30;;;;;;4973028;28;20023;-70
2021/01/17 00:08:09;;;;;;;11.02;6.47;;;15.20;61.20;;;;;;4974769;28;20061;-70
2021/01/17 00:10:35;;;;;;;10.30;5.80;;;15.30;60.90;;;;;;4956719;28;20023;-70
2021/01/17 00:13:01;;;;;;;11.27;6.22;;;15.30;60.80;;;;;;4974272;28;20439;-70
2021/01/17 00:15:27;;;;;;;10.73;5.70;;;15.30;60.80;;;;;;4957066;28;20023;-71
2021/01/17 00:17:52;;;;;;;10.00;5.40;;;15.20;61.30;;;;;;4974558;28;20400;-70
2021/01/17 00:20:20;;;;;;;10.57;6.50;;;15.20;61.70;;;;;;4957065;28;20089;-69
2021/01/17 00:22:46;;;;;;;11.63;6.10;;;15.30;60.20;;;;;;4974271;28;20102;-69
2021/01/17 00:25:14;;;;;;;10.07;6.28;;;15.30;60.70;;;;;;4974256;28;20023;-69
2021/01/17 00:27:40;;;;;;;9.60;5.85;;;15.30;60.60;;;;;;4980224;28;20011;-68
2021/01/17 00:30:08;;;;;;;10.55;6.20;;;15.20;60.90;;;;;;4958922;28;20019;-69
2021/01/17 00:32:35;;;;;;;8.73;5.00;;;15.20;60.40;;;;;;4962252;28;20436;-70
2021/01/17 00:35:01;;;;;;;9.95;5.53;;;15.20;61.20;;;;;;4957115;28;20403;-68
2021/01/17 00:37:27;;;;;;;9.52;5.50;;;15.20;60.50;;;;;;4957140;28;20126;-69
2021/01/17 00:39:53;;;;;;;9.45;6.20;;;15.20;61.20;;;;;;4957032;28;20091;-70
2021/01/17 00:42:18;;;;;;;9.95;5.95;;;15.10;60.10;;;;;;4973677;28;20047;-69
2021/01/17 00:44:44;;;;;;;9.57;5.50;;;15.10;61.40;;;;;;4978112;28;20035;-71
2021/01/17 00:47:11;;;;;;;9.25;5.88;;;15.20;60.50;;;;;;4956847;28;20049;-69
2021/01/17 00:49:36;;;;;;;10.20;6.15;;;15.10;60.20;;;;;;4974177;28;20023;-69
2021/01/17 00:52:02;;;;;;;10.55;5.88;;;15.10;61.30;;;;;;4956132;28;20027;-70
2021/01/17 00:54:28;;;;;;;9.43;5.40;;;15.20;60.70;;;;;;4972521;28;20037;-70
2021/01/17 00:56:54;;;;;;;9.00;5.60;;;15.20;59.70;;;;;;4955461;28;20389;-70
2021/01/17 00:59:19;;;;;;;8.85;5.50;;;15.10;60.30;;;;;;4942027;28;20023;-69
2021/01/17 01:01:46;;;;;;;9.38;5.55;;;15.00;59.90;;;;;;4971922;28;20058;-68
2021/01/17 01:04:15;;;;;;;9.70;5.07;;;15.00;60.30;;;;;;4958291;28;20032;-70
2021/01/17 01:06:41;;;;;;;8.82;5.30;;;15.00;60.70;;;;;;4957417;28;20103;-70
2021/01/17 01:09:11;;;;;;;8.77;5.30;;;15.00;60.20;;;;;;4938123;28;20027;-72
2021/01/17 01:11:38;;;;;;;8.95;4.95;;;15.00;60.20;;;;;;4961842;28;20018;-69
2021/01/17 01:14:04;;;;;;;8.88;5.45;;;15.10;60.70;;;;;;4969005;28;20496;-68
2021/01/17 01:16:30;;;;;;;10.05;5.72;;;15.00;60.80;;;;;;4943636;28;20041;-70
2021/01/17 01:18:56;;;;;;;8.07;5.05;;;15.00;59.80;;;;;;4960787;28;20039;-72
2021/01/17 01:21:26;;;;;;;9.80;6.15;;;15.00;60.40;;;;;;4972081;28;20038;-69
2021/01/17 01:23:52;;;;;;;9.00;5.53;;;15.00;59.40;;;;;;4936770;28;20159;-71
2021/01/17 01:26:20;;;;;;;9.05;5.50;;;15.00;60.20;;;;;;4964358;28;20358;-70
2021/01/17 01:28:46;;;;;;;10.68;5.32;;;15.00;59.70;;;;;;4968137;28;20101;-70
2021/01/17 01:31:17;;;;;;;9.48;5.30;;;15.00;60.20;;;;;;4945285;28;20035;-71
2021/01/17 01:33:42;;;;;;;9.07;5.40;;;15.00;60.30;;;;;;4961501;28;20030;-70
2021/01/17 01:36:08;;;;;;;8.40;5.30;;;15.00;60.30;;;;;;4938665;28;20030;-69
2021/01/17 01:38:34;;;;;;;10.77;5.88;;;15.00;60.20;;;;;;4953667;29;20038;-69
2021/01/17 01:40:59;;;;;;;8.85;4.90;;;15.00;60.20;;;;;;4965493;28;20030;-71
2021/01/17 01:43:25;;;;;;;9.55;5.25;;;14.90;60.40;;;;;;4969617;28;20460;-70
2021/01/17 01:45:51;;;;;;;8.27;5.45;;;14.90;60.40;;;;;;4963637;28;20035;-69
2021/01/17 01:48:17;;;;;;;7.82;5.03;;;14.90;59.80;;;;;;4969133;28;20020;-71
2021/01/17 01:50:44;;;;;;;9.82;5.55;;;14.90;59.20;;;;;;4938886;28;20118;-70
2021/01/17 01:53:10;;;;;;;9.35;5.13;;;14.80;60.60;;;;;;4950568;28;20055;-72
2021/01/17 01:55:36;;;;;;;8.40;5.30;;;14.90;60.30;;;;;;4961553;28;20631;-69
2021/01/17 01:58:05;;;;;;;8.95;4.95;;;14.80;59.50;;;;;;4964407;28;20070;-70
2021/01/17 02:00:32;;;;;;;9.07;5.38;;;14.80;60.00;;;;;;4960100;28;20023;-69
2021/01/17 02:02:57;;;;;;;9.55;5.20;;;14.80;59.60;;;;;;4947048;28;20086;-70
2021/01/17 02:05:23;;;;;;;8.85;4.35;;;14.80;59.40;;;;;;4953578;28;20035;-71
2021/01/17 02:08:13;;;;;;;7.90;4.72;;;14.80;59.70;;;;;;4950731;28;20412;-70
2021/01/17 02:10:41;;;;;;;8.05;4.68;;;14.80;60.00;;;;;;4936938;29;20110;-70
2021/01/17 02:13:35;;;;;;;8.57;4.72;;;14.80;60.10;;;;;;4940249;28;20066;-70
2021/01/17 02:16:02;;;;;;;10.00;4.90;;;14.80;60.90;;;;;;4958555;28;20027;-69
2021/01/17 02:18:33;;;;;;;9.15;4.70;;;14.70;60.20;;;;;;4953007;28;20030;-70
2021/01/17 02:21:00;;;;;;;8.88;5.20;;;14.80;60.80;;;;;;4960889;28;20034;-71
2021/01/17 02:23:35;;;;;;;8.52;4.70;;;14.70;60.20;;;;;;4963546;28;20046;-70
2021/01/17 02:26:00;;;;;;;10.23;5.57;;;14.70;60.50;;;;;;4948122;29;20122;-69
2021/01/17 02:28:26;;;;;;;7.90;4.90;;;14.80;59.90;;;;;;4952370;28;20110;-70
2021/01/17 02:30:54;;;;;;;7.40;4.50;;;14.80;60.10;;;;;;4935609;28;20027;-70
2021/01/17 02:33:32;;;;;;;11.48;5.32;;;14.80;60.60;;;;;;4957187;28;20388;-70
2021/01/17 02:36:04;;;;;;;8.23;4.97;;;14.80;59.20;;;;;;4962017;28;20242;-69
2021/01/17 02:39:05;;;;;;;9.40;5.95;;;14.80;58.80;;;;;;4955288;28;20528;-69
2021/01/17 02:41:58;;;;;;;10.10;5.95;;;14.70;59.40;;;;;;4968495;28;20126;-69
2021/01/17 02:44:28;;;;;;;10.85;5.05;;;14.70;59.60;;;;;;4970193;28;20027;-70
2021/01/17 02:47:09;;;;;;;8.35;5.30;;;14.80;58.50;;;;;;4945464;28;20032;-70
2021/01/17 02:49:35;;;;;;;13.13;6.28;;;14.80;60.00;;;;;;4952636;28;20031;-69
2021/01/17 02:52:05;;;;;;;10.10;5.25;;;14.80;59.70;;;;;;4953230;28;20028;-71
2021/01/17 02:54:35;;;;;;;8.73;5.15;;;14.80;59.80;;;;;;4953691;28;20535;-69
2021/01/17 02:57:02;;;;;;;9.85;5.80;;;14.70;58.80;;;;;;4936314;29;20312;-70
2021/01/17 02:59:33;;;;;;;10.27;5.60;;;14.70;59.10;;;;;;4961254;28;20552;-70
2021/01/17 03:02:02;;;;;;;12.90;5.70;;;14.70;59.60;;;;;;4958525;28;20053;-69
2021/01/17 03:04:52;;;;;;;8.82;5.45;;;14.70;60.00;;;;;;4961567;28;20480;-70
2021/01/17 03:07:19;;;;;;;9.85;5.75;;;14.70;59.00;;;;;;4952638;28;20023;-68
2021/01/17 03:09:45;;;;;;;8.68;5.40;;;14.70;59.50;;;;;;4939800;28;20015;-72
2021/01/17 03:12:11;;;;;;;9.20;5.65;;;14.70;59.70;;;;;;4966340;28;20128;-70
2021/01/17 03:14:39;;;;;;;10.02;5.93;;;14.80;59.20;;;;;;4962245;28;20062;-68
2021/01/17 03:17:06;;;;;;;9.80;5.47;;;14.80;59.50;;;;;;4970084;28;20062;-70
2021/01/17 03:19:32;;;;;;;9.90;5.97;;;14.70;58.80;;;;;;4971641;28;20035;-69
2021/01/17 03:21:57;;;;;;;9.93;5.75;;;14.60;58.50;;;;;;4957621;28;20488;-69
2021/01/17 03:24:23;;;;;;;11.27;5.97;;;14.70;58.70;;;;;;4953303;28;20093;-71
2021/01/17 03:26:49;;;;;;;10.68;6.43;;;14.70;59.70;;;;;;4945908;28;20050;-69
2021/01/17 03:29:15;;;;;;;9.98;5.90;;;14.70;59.20;;;;;;4952628;28;20050;-70
2021/01/17 03:31:40;;;;;;;11.38;6.57;;;14.70;59.60;;;;;;4971811;28;20105;-70
2021/01/17 03:34:06;;;;;;;11.98;6.90;;;14.70;58.40;;;;;;4949490;28;20076;-69
2021/01/17 03:36:31;;;;;;;11.32;6.03;;;14.70;58.90;;;;;;4959662;28;20062;-71
2021/01/17 03:38:57;;;;;;;12.30;6.80;;;14.70;59.40;;;;;;4956242;28;20037;-68
2021/01/17 03:41:24;;;;;;;10.00;6.22;;;14.60;59.20;;;;;;4973027;28;20031;-71
2021/01/17 03:43:49;;;;;;;10.80;5.68;;;14.60;58.70;;;;;;4972082;28;20027;-70
2021/01/17 03:46:15;;;;;;;11.63;6.28;;;14.60;59.20;;;;;;4972605;28;20077;-70
2021/01/17 03:48:41;;;;;;;11.15;6.20;;;14.60;59.40;;;;;;4962119;28;20050;-69
2021/01/17 03:51:06;;;;;;;9.55;6.10;;;14.70;59.10;;;;;;4971179;28;20106;-70
2021/01/17 03:53:32;;;;;;;11.98;6.32;;;14.60;59.10;;;;;;4938528;29;20020;-70
2021/01/17 03:55:57;;;;;;;12.60;6.75;;;14.60;58.90;;;;;;4956712;28;20067;-69
2021/01/17 03:58:23;;;;;;;12.45;6.60;;;14.60;58.80;;;;;;4958095;28;20037;-68
2021/01/17 04:00:48;;;;;;;11.27;6.53;;;14.60;58.80;;;;;;4973280;28;20029;-69
2021/01/17 04:03:14;;;;;;;10.65;6.40;;;14.60;58.90;;;;;;4974699;28;20480;-68
2021/01/17 04:05:40;;;;;;;11.43;6.63;;;14.60;58.40;;;;;;4961200;28;20066;-69
2021/01/17 04:08:05;;;;;;;11.93;6.90;;;14.60;59.10;;;;;;4957568;28;20027;-69
2021/01/17 04:10:31;;;;;;;11.23;6.85;;;14.50;58.80;;;;;;4941373;28;20035;-70
2021/01/17 04:12:56;;;;;;;13.02;7.10;;;14.50;58.90;;;;;;4974541;28;20086;-69
2021/01/17 04:15:22;;;;;;;11.55;6.72;;;14.50;58.20;;;;;;4956710;28;20122;-68
2021/01/17 04:17:48;;;;;;;10.48;6.65;;;14.50;59.30;;;;;;4968883;28;20448;-69
2021/01/17 04:20:13;;;;;;;10.68;6.28;;;14.60;57.10;;;;;;4955899;28;20086;-71
2021/01/17 04:22:39;;;;;;;10.38;6.47;;;14.50;59.10;;;;;;4970118;28;20507;-70
2021/01/17 04:25:06;;;;;;;10.45;5.85;;;14.50;58.80;;;;;;4959891;28;20106;-69
2021/01/17 04:27:31;;;;;;;12.85;7.25;;;14.50;59.30;;;;;;4956152;28;20050;-72
2021/01/17 04:29:57;;;;;;;10.90;6.43;;;14.50;59.10;;;;;;4956204;28;20024;-69
2021/01/17 04:32:23;;;;;;;10.20;6.15;;;14.50;59.10;;;;;;4957921;28;20022;-69
2021/01/17 04:34:49;;;;;;;10.32;5.97;;;14.40;58.70;;;;;;4954242;28;20034;-69
2021/01/17 04:37:19;;;;;;;11.52;7.53;;;14.40;58.90;;;;;;4958585;28;20038;-70
2021/01/17 04:39:45;;;;;;;10.43;5.75;;;14.40;59.00;;;;;;4945991;28;20027;-69
2021/01/17 04:42:17;;;;;;;11.40;6.53;;;14.40;59.50;;;;;;4972445;28;20603;-69
2021/01/17 04:44:58;;;;;;;10.93;6.72;;;14.50;59.30;;;;;;4969601;28;20117;-69
2021/01/17 04:47:24;;;;;;;;;;;14.40;59.10;;;;;;4939684;29;20059;-72
2021/01/17 04:49:54;;;;;;;11.82;6.20;;;14.40;58.80;;;;;;4956205;28;19945;-69
2021/01/17 04:52:28;;;;;;;10.55;6.22;;;14.40;59.40;;;;;;4956728;28;20519;-69
2021/01/17 04:54:53;;;;;;;11.00;6.40;;;14.40;59.10;;;;;;4939489;28;20031;-69
2021/01/17 04:57:38;;;;;;;10.32;6.18;;;14.40;59.00;;;;;;4944666;28;20035;-70
2021/01/17 05:00:10;;;;;;;10.52;6.20;;;14.50;58.70;;;;;;4972506;28;20738;-68
2021/01/17 05:03:03;;;;;;;11.05;6.75;;;14.40;58.90;;;;;;4958222;28;20041;-69
2021/01/17 05:05:39;;;;;;;9.98;6.20;;;14.40;59.00;;;;;;4955604;28;20489;-69
2021/01/17 05:08:08;;;;;;;11.95;7.07;;;14.40;59.20;;;;;;4973734;28;20057;-70
2021/01/17 05:10:37;;;;;;;12.65;6.57;;;14.40;59.20;;;;;;4970354;28;20027;-69
2021/01/17 05:13:11;;;;;;;11.70;5.97;;;14.40;59.30;;;;;;4967874;28;20026;-70
2021/01/17 05:15:41;;;;;;;10.05;6.20;;;14.50;58.90;;;;;;4937042;29;20122;-71
2021/01/17 05:18:07;;;;;;;9.32;5.60;;;14.40;59.30;;;;;;4952302;28;20607;-70
2021/01/17 05:20:33;;;;;;;9.80;5.75;;;14.40;59.20;;;;;;4944553;29;20038;-69
2021/01/17 05:22:59;;;;;;;9.27;5.88;;;14.40;59.50;;;;;;4962251;28;20093;-69
2021/01/17 05:25:27;;;;;;;11.38;5.95;;;14.40;59.10;;;;;;4970006;28;20485;-70
2021/01/17 05:27:53;;;;;;;10.90;6.25;;;14.40;59.50;;;;;;4950925;28;20027;-70
2021/01/17 05:30:19;;;;;;;9.75;6.15;;;14.40;59.40;;;;;;4958980;28;20557;-69
2021/01/17 05:32:53;;;;;;;11.20;6.57;;;14.40;59.40;;;;;;4955018;28;20547;-70
2021/01/17 05:35:21;;;;;;;10.98;6.20;;;14.40;59.30;;;;;;4967397;28;20053;-70
2021/01/17 05:37:52;;;;;;;11.20;6.88;;;14.30;59.40;;;;;;4954854;28;20031;-70
2021/01/17 05:40:19;;;;;;;10.98;6.72;;;14.30;59.10;;;;;;4947755;28;20050;-70
2021/01/17 05:42:46;;;;;;;12.07;6.47;;;14.30;59.00;;;;;;4971310;28;20027;-71
2021/01/17 05:45:14;;;;;;;9.82;5.57;;;14.30;59.30;;;;;;4967653;28;20023;-70
2021/01/17 05:47:59;;;;;;;10.18;6.43;;;14.30;59.00;;;;;;4956009;28;20102;-69
2021/01/17 05:50:27;;;;;;;11.32;6.32;;;14.30;58.90;;;;;;4959994;28;20078;-71
2021/01/17 05:52:54;;;;;;;9.48;6.38;;;14.20;59.50;;;;;;4960413;28;20027;-70
2021/01/17 05:55:29;;;;;;;12.23;7.00;;;14.20;58.80;;;;;;4978541;28;20089;-70
2021/01/17 05:57:54;;;;;;;10.32;6.18;;;14.20;59.40;;;;;;4946179;28;20033;-70
2021/01/17 06:00:33;;;;;;;10.38;6.38;;;14.20;59.40;;;;;;4945813;29;20031;-69
2021/01/17 06:02:59;;;;;;;10.60;6.70;;;14.20;59.20;;;;;;4949324;28;20046;-69
2021/01/17 06:05:25;;;;;;;11.85;7.70;;;14.20;59.40;;;;;;4965093;28;20122;-70
2021/01/17 06:07:52;;;;;;;11.35;6.50;;;14.20;59.20;;;;;;4969764;28;20117;-70
2021/01/17 06:10:23;;;;;;;13.23;7.50;;;14.20;59.10;;;;;;4949159;28;20076;-69
2021/01/17 06:12:51;;;;;;;10.63;6.90;;;14.20;58.80;;;;;;4944936;28;20030;-70
2021/01/17 06:15:17;;;;;;;12.02;7.22;;;14.10;58.60;;;;;;4968029;28;20018;-69
2021/01/17 06:17:47;;;;;;;12.00;7.63;;;14.10;58.90;;;;;;4963661;28;20027;-69
2021/01/17 06:20:21;;;;;;;11.75;6.50;;;14.10;58.70;;;;;;4936300;28;20023;-71
2021/01/17 06:22:58;;;;;;;11.30;7.70;;;14.10;58.70;;;;;;4956652;28;20119;-70
2021/01/17 06:25:42;;;;;;;11.93;7.50;;;14.00;58.20;;;;;;4943495;28;20027;-70
2021/01/17 06:28:10;;;;;;;11.23;7.13;;;14.00;58.80;;;;;;4966106;28;20152;-70
2021/01/17 06:30:36;;;;;;;11.15;7.07;;;14.00;58.80;;;;;;4955023;28;20023;-70
2021/01/17 06:33:04;;;;;;;11.48;6.97;;;13.90;58.90;;;;;;4962658;28;20038;-71
2021/01/17 06:35:31;;;;;;;11.95;7.35;;;14.00;59.10;;;;;;4953052;28;20022;-69
2021/01/17 06:37:57;;;;;;;13.20;7.88;;;14.10;58.90;;;;;;4952937;29;20501;-70
2021/01/17 06:40:31;;;;;;;10.25;6.63;;;14.00;58.50;;;;;;4952850;29;20067;-69
2021/01/17 06:42:57;;;;;;;10.35;6.35;;;14.00;59.00;;;;;;4948956;28;20121;-69
2021/01/17 06:45:23;;;;;;;10.55;6.78;;;14.00;59.00;;;;;;4968950;28;20022;-68
2021/01/17 06:47:55;;;;;;;9.98;6.10;;;14.00;58.90;;;;;;4952649;28;20038;-70
2021/01/17 06:50:24;;;;;;;10.15;7.10;;;14.10;59.20;;;;;;4956123;28;20031;-70
2021/01/17 06:52:58;;;;;;;9.43;6.22;;;14.00;59.00;;;;;;4966973;28;20023;-69
2021/01/17 06:55:24;;;;;;;12.50;8.25;;;14.00;58.90;;;;;;4954459;28;20454;-73
2021/01/17 06:57:51;;;;;;;10.38;7.13;;;14.00;58.80;;;;;;4938967;29;20130;-69
2021/01/17 07:00:18;;;;;;;11.23;7.55;;;14.00;59.10;;;;;;4956803;28;20117;-70
2021/01/17 07:02:54;;;;;;;10.45;6.80;;;14.00;59.20;;;;;;4952467;28;20150;-70
2021/01/17 07:05:42;;;;;;;9.82;6.43;;;13.90;58.90;;;;;;4953380;28;20065;-68
2021/01/17 07:08:29;;;;;;;11.45;7.47;;;13.90;59.00;;;;;;4957950;28;20439;-69
2021/01/17 07:11:05;;;;;;;10.10;6.63;;;13.90;59.00;;;;;;4965964;28;20373;-72
2021/01/17 07:13:34;;;;;;;10.93;6.55;;;13.90;59.20;;;;;;4952323;29;20062;-70
2021/01/17 07:16:02;;;;;;;11.40;7.00;;;13.90;59.20;;;;;;4965151;28;20023;-69
2021/01/17 07:18:36;;;;;;;10.95;7.25;;;14.00;59.50;;;;;;4967437;28;20034;-69
2021/01/17 07:21:03;;;;;;;11.02;7.07;;;13.90;59.10;;;;;;4951971;28;20023;-70
2021/01/17 07:23:31;;;;;;;10.20;6.72;;;13.90;59.40;;;;;;4952154;29;20035;-71
2021/01/17 07:26:00;;;;;;;11.15;6.60;;;13.90;59.30;;;;;;4968408;28;20812;-71
2021/01/17 07:28:32;;;;;;;11.55;7.30;;;13.90;59.20;;;;;;4964922;28;20166;-69
2021/01/17 07:31:01;;;;;;;9.73;6.47;;;13.90;59.10;;;;;;4949500;28;20507;-70
2021/01/17 07:33:40;;;;;;;12.25;7.32;;;13.90;59.30;;;;;;4971493;28;20026;-69
2021/01/17 07:36:09;;;;;;;11.63;6.75;;;13.90;58.80;;;;;;4957053;28;20019;-69
2021/01/17 07:38:37;;;;;;;10.27;6.35;;;13.90;59.20;;;;;;4956143;28;20031;-70
2021/01/17 07:41:08;;;;;;;11.18;7.45;;;13.90;60.10;;;;;;4953890;28;20028;-69
2021/01/17 07:43:42;;;;;;;11.05;7.13;;;13.90;58.80;;;;;;4950532;28;20031;-70
2021/01/17 07:46:18;;;;;;;11.23;7.15;;;13.90;59.20;;;;;;4945607;28;20489;-72
2021/01/17 07:48:48;;;;;;;10.88;7.35;;;13.90;59.00;;;;;;4955376;28;20038;-70
2021/01/17 07:51:15;;;;;;;12.07;7.82;;;13.80;59.00;;;;;;4974979;28;20451;-69
2021/01/17 07:54:05;;;;;;;10.63;7.20;;;13.80;59.30;;;;;;4946858;29;20023;-70
2021/01/17 07:56:35;;;;;;;11.95;7.10;;;13.70;58.40;;;;;;4965099;28;20035;-70
2021/01/17 07:59:06;;;;;;;13.38;8.50;;;13.80;59.00;;;;;;4947077;28;20535;-70
2021/01/17 08:01:32;;;;;;;12.25;7.30;;;13.70;59.50;;;;;;4963669;28;20536;-70
2021/01/17 08:04:03;;;;;;;230.45;107.32;;;13.80;59.30;;;;;;4964233;28;20019;-70
2021/01/17 08:06:35;;;;;;;158.23;76.35;;;13.80;59.50;;;;;;4959041;28;20704;-70
2021/01/17 08:09:05;;;;;;;48.25;26.50;;;13.80;58.70;;;;;;4946886;28;20027;-70
2021/01/17 08:11:55;;;;;;;30.63;16.70;;;13.70;58.90;;;;;;4964590;28;20395;-70
2021/01/17 08:14:25;;;;;;;24.55;14.23;;;13.80;59.10;;;;;;4946503;28;20042;-70
2021/01/17 08:17:18;;;;;;;21.95;11.85;;;13.80;57.90;;;;;;4964081;28;20417;-70
2021/01/17 08:19:52;;;;;;;20.25;11.70;;;13.80;58.90;;;;;;4945174;28;20031;-70
2021/01/17 08:22:17;;;;;;;20.38;11.27;;;13.90;58.70;;;;;;4948945;28;20027;-71
2021/01/17 08:24:50;;;;;;;20.02;11.23;;;14.00;58.50;;;;;;4965264;28;20109;-71
2021/01/17 08:27:30;;;;;;;21.10;11.68;;;13.90;57.30;;;;;;4960486;28;20027;-69
2021/01/17 08:30:07;;;;;;;19.75;11.35;;;13.90;57.90;;;;;;4958360;28;20046;-69
2021/01/17 08:32:36;;;;;;;18.67;11.65;;;14.00;58.00;;;;;;4954835;28;20405;-71
2021/01/17 08:35:20;;;;;;;19.38;11.00;;;14.00;57.60;;;;;;4946501;28;20030;-69
2021/01/17 08:37:51;;;;;;;19.05;10.45;;;14.10;58.00;;;;;;4960536;28;20019;-69
2021/01/17 08:40:29;;;;;;;19.13;12.45;;;14.20;58.40;;;;;;4972332;28;20150;-70
2021/01/17 08:42:55;;;;;;;56.95;50.78;;;14.20;59.10;;;;;;4957430;28;20396;-70
2021/01/17 08:45:21;;;;;;;24.60;18.75;;;14.30;58.70;;;;;;4967105;28;20038;-69
2021/01/17 08:47:53;;;;;;;22.85;15.38;;;14.40;58.50;;;;;;4956092;28;20027;-68
2021/01/17 08:50:36;;;;;;;20.45;13.77;;;14.50;58.60;;;;;;4961043;28;20106;-70
2021/01/17 08:53:09;;;;;;;23.85;13.38;;;14.60;59.00;;;;;;4939110;28;20085;-69
2021/01/17 08:55:48;;;;;;;43.13;15.85;;;14.60;57.90;;;;;;4964102;28;20404;-71
2021/01/17 08:58:37;;;;;;;26.60;14.05;;;14.50;58.60;;;;;;4941906;28;20582;-71
2021/01/17 09:01:07;;;;;;;23.10;12.75;;;14.60;59.40;;;;;;4942441;28;20026;-73
2021/01/17 09:03:35;;;;;;;19.02;12.57;;;14.60;59.70;;;;;;4961884;28;20038;-69
2021/01/17 09:06:12;;;;;;;19.23;13.30;;;14.70;59.30;;;;;;4961411;28;20031;-71
2021/01/17 09:08:41;;;;;;;21.67;13.13;;;14.80;59.10;;;;;;4939976;28;20022;-70
2021/01/17 09:11:28;;;;;;;17.58;12.82;;;14.90;58.80;;;;;;4959592;28;20023;-71
2021/01/17 09:14:12;;;;;;;20.63;12.35;;;14.90;58.70;;;;;;4953778;28;20054;-68
2021/01/17 09:16:45;;;;;;;18.67;12.75;;;15.00;58.60;;;;;;4967257;28;20059;-71
2021/01/17 09:19:11;;;;;;;22.02;12.43;;;15.10;59.00;;;;;;4963828;28;20514;-70
2021/01/17 09:21:38;;;;;;;17.80;12.35;;;15.20;58.40;;;;;;4958418;28;20114;-71
2021/01/17 09:24:12;;;;;;;19.73;12.82;;;15.20;58.90;;;;;;4943460;28;20385;-65
2021/01/17 09:26:40;;;;;;;19.83;12.10;;;15.30;58.50;;;;;;4967682;28;20019;-63
2021/01/17 09:29:05;;;;;;;30.77;21.35;;;15.80;57.60;;;;;;4960767;28;20426;-63
2021/01/17 09:31:33;;;;;;;22.48;14.15;;;15.90;57.10;;;;;;4966244;28;20027;-61
2021/01/17 09:33:58;;;;;;;25.40;13.35;;;15.90;57.30;;;;;;4969994;28;20038;-63
2021/01/17 09:36:25;;;;;;;23.77;12.95;;;16.00;57.50;;;;;;4955547;28;20436;-63
2021/01/17 09:38:51;;;;;;;27.55;13.68;;;16.10;57.70;;;;;;4959783;28;20035;-62
2021/01/17 09:41:24;;;;;;;35.38;14.38;;;16.10;58.20;;;;;;4964943;28;20026;-62
2021/01/17 09:43:51;;;;;;;40.47;14.95;;;16.20;59.20;;;;;;4962461;28;20038;-63
2021/01/17 09:46:24;;;;;;;47.75;14.35;;;16.50;58.60;;;;;;4961947;28;20038;-63
2021/01/17 09:48:58;;;;;;;31.15;14.57;;;16.40;59.10;;;;;;4944170;28;20034;-63
2021/01/17 09:51:28;;;;;;;49.60;16.30;;;16.40;60.90;;;;;;4958142;28;20030;-62
2021/01/17 09:53:55;;;;;;;39.65;15.73;;;16.40;59.70;;;;;;4951254;28;20031;-63
2021/01/17 09:56:21;;;;;;;41.55;15.82;;;16.30;60.40;;;;;;4965932;28;20037;-63
2021/01/17 09:58:46;;;;;;;31.85;14.75;;;16.30;61.50;;;;;;4951896;28;20027;-66
2021/01/17 10:01:17;;;;;;;38.90;17.35;;;16.30;61.50;;;;;;4967550;28;20024;-67
2021/01/17 10:03:49;;;;;;;39.40;17.35;;;16.20;62.00;;;;;;4949301;28;20053;-65
2021/01/17 10:06:15;;;;;;;30.52;16.90;;;16.10;62.40;;;;;;4961836;28;20034;-67
2021/01/17 10:08:41;;;;;;;41.58;16.95;;;16.30;62.30;;;;;;4947306;28;20066;-68
2021/01/17 10:11:07;;;;;;;39.47;16.30;;;16.20;61.90;;;;;;4962276;28;20023;-68
2021/01/17 10:13:33;;;;;;;36.33;16.17;;;16.20;62.10;;;;;;4947472;28;20019;-69
2021/01/17 10:15:58;;;;;;;27.40;15.80;;;16.20;62.00;;;;;;4943588;28;20039;-66
2021/01/17 10:18:24;;;;;;;31.15;16.58;;;16.30;62.80;;;;;;4962087;28;20542;-69
2021/01/17 10:20:57;;;;;;;28.95;15.90;;;16.30;64.30;;;;;;4962706;28;20566;-70
2021/01/17 10:23:30;;;;;;;29.45;15.20;;;16.30;63.70;;;;;;4964491;28;20031;-66
2021/01/17 10:25:56;;;;;;;27.80;13.88;;;16.30;65.10;;;;;;4941118;29;20036;-68
2021/01/17 10:28:25;;;;;;;32.33;16.63;;;16.40;66.30;;;;;;4956888;28;20023;-63
2021/01/17 10:30:56;;;;;;;31.95;14.77;;;16.30;66.00;;;;;;4957446;28;20550;-69
2021/01/17 10:33:23;;;;;;;30.65;14.10;;;16.30;66.10;;;;;;4970445;28;20415;-63
2021/01/17 10:35:50;;;;;;;26.13;13.25;;;16.40;65.70;;;;;;4965724;28;20038;-65
2021/01/17 10:38:17;;;;;;;26.10;12.68;;;16.40;65.50;;;;;;4944703;29;20039;-66
2021/01/17 10:40:44;;;;;;;24.55;13.52;;;16.40;65.80;;;;;;4955668;28;20070;-64
2021/01/17 10:43:16;;;;;;;23.85;12.43;;;16.50;64.60;;;;;;4944674;28;20114;-65
2021/01/17 10:45:50;;;;;;;28.73;13.15;;;16.50;65.30;;;;;;4959741;28;20181;-67
2021/01/17 10:48:16;;;;;;;22.80;12.10;;;16.50;64.70;;;;;;4962209;28;20441;-67
2021/01/17 10:50:47;;;;;;;20.38;12.60;;;16.40;64.60;;;;;;4963694;28;20030;-60
2021/01/17 10:53:22;;;;;;;27.15;13.18;;;16.60;64.10;;;;;;4966286;28;20031;-70
2021/01/17 10:55:54;;;;;;;33.70;14.23;;;16.50;63.80;;;;;;4945290;28;20576;-69
2021/01/17 10:58:25;;;;;;;31.52;13.73;;;16.50;63.70;;;;;;4952892;28;20031;-71
2021/01/17 11:00:59;;;;;;;26.58;16.42;;;16.50;62.60;;;;;;4966169;28;20135;-71
2021/01/17 11:03:33;;;;;;;29.15;13.18;;;16.50;62.80;;;;;;4951738;28;20054;-72
2021/01/17 11:06:12;;;;;;;34.70;13.02;;;16.50;62.50;;;;;;4960774;28;20038;-70
2021/01/17 11:08:46;;;;;;;23.70;12.23;;;16.50;62.20;;;;;;4971133;28;20118;-70
2021/01/17 11:11:15;;;;;;;24.85;11.52;;;16.70;62.40;;;;;;4955864;28;20117;-71
2021/01/17 11:13:41;;;;;;;28.27;11.60;;;16.70;61.30;;;;;;4965481;28;20165;-62
2021/01/17 11:16:07;;;;;;;33.42;11.45;;;16.70;60.30;;;;;;4961770;28;20409;-64
2021/01/17 11:18:35;;;;;;;31.73;11.40;;;16.60;63.60;;;;;;4962893;28;20039;-64
2021/01/17 11:21:03;;;;;;;27.20;12.20;;;16.70;61.50;;;;;;4947654;28;20050;-62
2021/01/17 11:23:29;;;;;;;39.58;13.60;;;16.70;63.00;;;;;;4968297;28;20041;-62
2021/01/17 11:26:03;;;;;;;70.35;25.52;;;16.60;62.90;;;;;;4969194;28;20105;-62
2021/01/17 11:28:30;;;;;;;55.10;18.25;;;16.60;64.90;;;;;;4964518;28;20113;-63
2021/01/17 11:31:13;;;;;;;41.47;15.55;;;16.80;64.10;;;;;;4957176;28;20082;-63
2021/01/17 11:33:39;;;;;;;42.88;15.45;;;16.80;64.30;;;;;;4970994;28;20058;-62
2021/01/17 11:36:05;;;;;;;34.13;15.60;;;16.70;65.00;;;;;;4962988;28;20059;-65
2021/01/17 11:38:53;;;;;;;30.38;14.00;;;16.60;65.40;;;;;;4960617;28;20114;-64
2021/01/17 11:41:20;;;;;;;27.85;13.63;;;16.60;65.10;;;;;;4945880;28;20031;-63
2021/01/17 11:43:47;;;;;;;26.00;13.20;;;16.50;65.00;;;;;;4965646;28;20491;-63
2021/01/17 11:46:13;;;;;;;24.65;12.73;;;16.50;64.40;;;;;;4957966;28;20027;-64
2021/01/17 11:48:40;;;;;;;23.85;12.32;;;16.50;64.10;;;;;;4953607;28;20031;-63
2021/01/17 11:51:07;;;;;;;26.70;13.00;;;16.40;63.90;;;;;;4955279;28;20108;-63
2021/01/17 11:53:34;;;;;;;29.13;12.82;;;16.50;63.30;;;;;;4963633;28;20022;-63
2021/01/17 11:55:59;;;;;;;26.88;12.18;;;16.50;63.10;;;;;;4958524;28;20034;-63
2021/01/17 11:58:26;;;;;;;24.85;12.23;;;16.50;62.90;;;;;;4955727;28;20031;-63
2021/01/17 12:00:58;;;;;;;20.88;10.68;;;16.40;62.80;;;;;;4971208;28;20030;-63
2021/01/17 12:03:37;;;;;;;24.35;11.68;;;16.50;62.80;;;;;;4958941;28;20568;-63
2021/01/17 12:06:03;;;;;;;20.42;11.27;;;16.50;62.90;;;;;;4971449;28;20030;-63
2021/01/17 12:09:00;;;;;;;27.00;12.25;;;16.50;62.20;;;;;;4963656;28;20393;-62
2021/01/17 12:11:43;;;;;;;24.63;11.98;;;16.50;62.90;;;;;;4952437;28;20018;-62
2021/01/17 12:14:10;;;;;;;22.77;10.63;;;16.50;62.20;;;;;;4961446;28;20047;-63
2021/01/17 12:16:40;;;;;;;20.25;11.10;;;16.60;62.30;;;;;;4949377;28;20034;-64
2021/01/17 12:19:07;;;;;;;18.90;10.38;;;16.70;63.70;;;;;;4955087;28;20023;-63
2021/01/17 12:21:34;;;;;;;28.23;10.40;;;16.80;62.90;;;;;;4967017;28;20027;-63
2021/01/17 12:24:01;;;;;;;23.13;10.02;;;16.90;63.40;;;;;;4968013;28;20488;-63
2021/01/17 12:26:27;;;;;;;23.52;10.20;;;16.90;62.30;;;;;;4964789;28;20042;-62
2021/01/17 12:28:53;;;;;;;23.05;10.85;;;16.90;61.90;;;;;;4951237;28;20034;-63
2021/01/17 12:31:20;;;;;;;23.90;11.20;;;17.00;61.70;;;;;;4964526;28;20026;-64
2021/01/17 12:33:46;;;;;;;18.88;10.30;;;16.80;60.60;;;;;;4962789;28;20027;-64
2021/01/17 12:36:14;;;;;;;21.13;10.73;;;16.80;60.60;;;;;;4972741;28;20027;-66
2021/01/17 12:38:40;;;;;;;27.02;11.80;;;16.80;60.40;;;;;;4961325;28;20105;-65
2021/01/17 12:41:20;;;;;;;27.73;12.35;;;16.60;59.40;;;;;;4966293;28;20034;-64
2021/01/17 12:43:46;;;;;;;21.55;11.23;;;16.50;58.50;;;;;;4966804;28;20031;-64
2021/01/17 12:46:13;;;;;;;17.73;9.77;;;16.60;59.50;;;;;;4965988;28;20031;-65
2021/01/17 12:48:40;;;;;;;16.10;9.38;;;16.60;59.60;;;;;;4941088;28;20030;-64